Jarvie, Canada
Current Conditions -  °F | °C
As of 11:00 AM on Friday 24 Oct 2014 (Local Time) from CZVL Reporting Station
Clear Clear  
Wind Chill: 39°   Ceiling: Unl
Heat Index: 45°   Visibility: 9mi
Dew Point: 30°   Wind: 12mph
Humidity: 57%   Direction: 260°W
Pressure: 29.83"   Gusts: NA
Location:  54.45°N, 113.98°W
Report Text: CZVL 241700Z AUTO 26010KT 9SM CLR 07/M01 A2983 RMK SLP120
Loading
Personal Weather Stations






























Interactive Weather Map
Tropical Storm Tracking
New forecast layout! Learn more

10-Day Weather Forecast

Advertisements
Track Severe Weather on mobile